Time;durP1;ratioP1;P1;durP2;ratioP2;P2;SDS_P1;SDS_P2;PMS_P1;PMS_P2;Temp;Humidity;BMP_temperature;BMP_pressure;BME280_temperature;BME280_humidity;BME280_pressure;Samples;Min_cycle;Max_cycle;Signal;HPM_P1;HPM_P2
2022/01/27 00:01:29;;;;;;;19.07;8.50;;;;;;;0.85;80.75;97379.09;5095270;28;20414;-39
2022/01/27 00:04:08;;;;;;;14.33;6.73;;;;;;;0.84;80.68;97384.47;5095350;28;20427;-36
2022/01/27 00:06:37;;;;;;;22.90;9.10;;;;;;;0.87;80.89;97378.94;5095013;28;20489;-36
2022/01/27 00:09:12;;;;;;;12.23;6.60;;;;;;;0.87;80.67;97377.13;5094898;28;20453;-36
2022/01/27 00:11:43;;;;;;;16.40;8.27;;;;;;;0.78;81.20;97368.47;5094918;28;20981;-37
2022/01/27 00:14:13;;;;;;;17.93;7.80;;;;;;;0.86;80.68;97374.66;5094732;28;20458;-37
2022/01/27 00:16:43;;;;;;;23.00;8.77;;;;;;;0.87;81.02;97379.75;5094869;28;20478;-38
2022/01/27 00:19:11;;;;;;;26.10;8.70;;;;;;;0.89;81.15;97379.59;5094650;28;20939;-38
2022/01/27 00:21:38;;;;;;;19.93;10.13;;;;;;;0.88;81.04;97380.56;5094575;28;20824;-38
2022/01/27 00:24:07;;;;;;;20.67;10.93;;;;;;;0.86;80.93;97375.50;5094573;28;20475;-38
2022/01/27 00:26:34;;;;;;;25.57;12.33;;;;;;;0.82;81.27;97375.00;5094552;28;20447;-37
2022/01/27 00:29:01;;;;;;;26.57;12.40;;;;;;;0.82;81.68;97368.97;5094566;28;20443;-38
2022/01/27 00:31:29;;;;;;;27.17;14.10;;;;;;;0.86;81.58;97378.13;5094697;28;20446;-38
2022/01/27 00:33:57;;;;;;;23.83;12.40;;;;;;;0.82;81.60;97372.38;5094516;28;20780;-39
2022/01/27 00:36:25;;;;;;;17.83;10.30;;;;;;;0.85;81.78;97368.63;5094349;28;20493;-37
2022/01/27 00:38:52;;;;;;;22.17;9.30;;;;;;;0.84;82.03;97376.63;5094367;28;20442;-39
2022/01/27 00:41:19;;;;;;;22.37;9.00;;;;;;;0.82;81.68;97371.59;5094313;28;20530;-36
2022/01/27 00:43:48;;;;;;;16.23;6.93;;;;;;;0.84;81.83;97363.56;5094167;28;20487;-38
2022/01/27 00:46:17;;;;;;;13.00;7.63;;;;;;;0.78;82.10;97365.84;5094307;28;20443;-39
2022/01/27 00:48:47;;;;;;;19.97;8.30;;;;;;;0.79;81.90;97362.22;5099767;28;20470;-38
2022/01/27 00:51:20;;;;;;;28.53;11.93;;;;;;;0.80;81.97;97365.69;5114874;28;20446;-37
2022/01/27 00:53:51;;;;;;;26.57;8.27;;;;;;;0.77;81.80;97363.38;5115044;28;20434;-38
2022/01/27 00:56:24;;;;;;;21.53;8.80;;;;;;;0.78;81.85;97365.03;5114459;28;20906;-37
2022/01/27 00:59:17;;;;;;;12.43;6.50;;;;;;;0.76;81.87;97357.34;5114398;28;20431;-36
2022/01/27 01:01:51;;;;;;;18.97;9.00;;;;;;;0.72;82.17;97361.25;5114338;28;20449;-39
2022/01/27 01:04:25;;;;;;;16.43;9.50;;;;;;;0.71;82.28;97359.63;5114326;28;20430;-37
2022/01/27 01:06:53;;;;;;;23.53;8.53;;;;;;;0.73;82.55;97357.69;5114641;28;20429;-36
2022/01/27 01:14:55;;;;;;;31.60;10.47;;;;;;;0.75;82.64;97360.94;5114213;28;20503;-36
2022/01/27 01:17:39;;;;;;;23.80;9.70;;;;;;;0.76;82.89;97361.75;5114103;28;20988;-36
2022/01/27 01:31:14;;;;;;;15.13;9.83;;;;;;;0.67;83.00;97360.94;5114368;28;20410;-36
2022/01/27 01:33:43;;;;;;;16.53;9.37;;;;;;;0.70;83.16;97363.22;5114244;28;20426;-36
2022/01/27 01:36:26;;;;;;;23.73;8.43;;;;;;;0.49;83.62;97323.63;5113820;28;20482;-35
2022/01/27 01:38:54;;;;;;;19.23;10.00;;;;;;;0.64;83.83;97348.16;5113816;28;20419;-37
2022/01/27 01:41:21;;;;;;;17.70;9.53;;;;;;;0.61;83.69;97338.03;5113893;28;20922;-37
2022/01/27 01:43:48;;;;;;;18.83;8.73;;;;;;;0.63;83.99;97345.72;5113648;28;20493;-34
2022/01/27 01:46:15;;;;;;;25.10;9.50;;;;;;;0.53;84.11;97330.97;5113747;28;20441;-37
2022/01/27 01:48:42;;;;;;;19.80;9.50;;;;;;;0.58;84.27;97340.94;5113422;28;20481;-35
2022/01/27 01:51:10;;;;;;;17.80;9.27;;;;;;;0.65;83.94;97338.53;5113696;28;20926;-34
2022/01/27 01:53:38;;;;;;;16.47;8.63;;;;;;;0.62;84.24;97350.13;5113949;28;20442;-37
2022/01/27 01:56:06;;;;;;;12.70;8.13;;;;;;;0.66;84.42;97353.25;5113732;28;20436;-37
2022/01/27 01:58:33;;;;;;;21.60;10.07;;;;;;;0.63;84.40;97351.75;5113650;28;20445;-37
2022/01/27 02:01:00;;;;;;;21.87;8.43;;;;;;;0.59;84.66;97355.66;5113558;28;20434;-35
2022/01/27 02:03:27;;;;;;;21.67;10.23;;;;;;;0.60;84.73;97362.53;5114298;28;20489;-35
2022/01/27 02:05:56;;;;;;;25.30;10.10;;;;;;;0.59;84.79;97345.22;5113780;28;20810;-35
2022/01/27 02:08:48;;;;;;;17.00;8.77;;;;;;;0.61;84.78;97351.09;5113428;28;20442;-36
2022/01/27 02:19:31;;;;;;;22.27;8.10;;;;;;;0.63;84.29;97345.72;5113620;28;20449;-37
2022/01/27 02:22:02;;;;;;;23.20;10.20;;;;;;;0.65;84.46;97338.53;5113680;28;20438;-35
2022/01/27 02:24:31;;;;;;;20.87;9.57;;;;;;;0.69;84.17;97340.69;5113672;28;20446;-36
2022/01/27 02:26:59;;;;;;;33.50;11.93;;;;;;;0.70;84.39;97339.69;5113710;28;20913;-36
2022/01/27 02:29:27;;;;;;;24.30;10.60;;;;;;;0.68;84.33;97341.63;5113351;28;20922;-36
2022/01/27 02:31:56;;;;;;;26.23;11.80;;;;;;;0.78;84.09;97357.19;5113681;28;20438;-36
2022/01/27 02:34:24;;;;;;;23.53;9.17;;;;;;;0.77;84.29;97342.47;5113293;28;20941;-36
2022/01/27 02:36:52;;;;;;;26.60;10.50;;;;;;;0.77;84.04;97345.91;5115712;28;20936;-34
2022/01/27 02:39:21;;;;;;;24.27;9.67;;;;;;;0.77;84.27;97351.13;5117482;28;20444;-37
2022/01/27 02:41:57;;;;;;;34.87;12.10;;;;;;;0.53;84.03;97315.31;5117328;28;20465;-37
2022/01/27 02:44:34;;;;;;;42.07;16.37;;;;;;;0.77;84.84;97343.28;5117022;28;20438;-34
2022/01/27 02:47:02;;;;;;;51.73;16.67;;;;;;;0.78;84.92;97347.53;5117033;28;20794;-35
2022/01/27 02:49:30;;;;;;;35.67;12.03;;;;;;;0.75;84.39;97350.50;5116700;28;20498;-37
2022/01/27 02:51:57;;;;;;;42.63;15.57;;;;;;;0.77;84.48;97343.28;5116768;28;20446;-36
2022/01/27 02:54:26;;;;;;;25.40;11.73;;;;;;;0.79;84.55;97341.31;5116860;28;20445;-34
2022/01/27 02:56:53;;;;;;;38.03;14.07;;;;;;;0.76;84.44;97341.66;5117022;28;20848;-36
2022/01/27 02:59:21;;;;;;;26.83;10.40;;;;;;;0.72;84.88;97350.78;5117053;28;20442;-36
2022/01/27 03:01:50;;;;;;;35.40;12.37;;;;;;;0.74;85.12;97348.84;5116988;28;20521;-38
2022/01/27 03:04:18;;;;;;;26.80;10.13;;;;;;;0.70;84.95;97344.09;5116499;28;20531;-37
2022/01/27 03:06:46;;;;;;;31.83;12.83;;;;;;;0.65;85.13;97336.75;5115889;28;20495;-36
2022/01/27 03:09:14;;;;;;;23.63;10.37;;;;;;;0.63;85.63;97345.72;5116752;28;20437;-36
2022/01/27 03:11:48;;;;;;;38.57;12.93;;;;;;;0.62;85.76;97350.13;5116469;28;20445;-38
2022/01/27 03:14:16;;;;;;;21.13;10.90;;;;;;;0.61;86.01;97359.75;5116435;28;20427;-37
2022/01/27 03:16:44;;;;;;;22.60;10.50;;;;;;;0.67;86.22;97355.69;5116728;28;20434;-37
2022/01/27 03:19:12;;;;;;;34.70;14.00;;;;;;;0.72;85.88;97357.81;5116413;28;20449;-38
2022/01/27 03:21:39;;;;;;;40.87;15.90;;;;;;;0.70;85.49;97363.22;5116340;28;20810;-37
2022/01/27 03:24:07;;;;;;;34.50;15.00;;;;;;;0.72;85.63;97371.72;5116231;28;20490;-37
2022/01/27 03:26:34;;;;;;;40.77;15.23;;;;;;;0.69;85.74;97374.66;5116436;28;20481;-35
2022/01/27 03:29:04;;;;;;;26.40;14.60;;;;;;;0.75;85.54;97366.19;5116131;28;20449;-35
2022/01/27 03:31:31;;;;;;;35.53;14.40;;;;;;;0.78;85.32;97381.53;5116448;28;20454;-38
2022/01/27 03:33:58;;;;;;;28.80;14.90;;;;;;;0.79;85.34;97388.38;5116087;28;20460;-36
2022/01/27 03:36:26;;;;;;;25.20;12.10;;;;;;;0.83;85.24;97383.66;5116045;28;20448;-37
2022/01/27 03:38:53;;;;;;;15.80;8.23;;;;;;;0.84;85.36;97384.47;5116200;28;20446;-37
2022/01/27 03:41:22;;;;;;;21.53;12.37;;;;;;;0.87;85.55;97389.41;5115931;28;20438;-37
2022/01/27 03:43:51;;;;;;;13.33;6.80;;;;;;;0.92;85.06;97387.09;5115763;28;20497;-36
2022/01/27 03:46:20;;;;;;;7.43;5.40;;;;;;;0.97;85.55;97382.22;5115915;28;20511;-37
2022/01/27 03:48:47;;;;;;;11.70;6.57;;;;;;;1.01;85.25;97383.50;5114792;28;20474;-37
2022/01/27 03:51:15;;;;;;;9.47;5.77;;;;;;;1.02;85.49;97382.56;5116063;28;20451;-35
2022/01/27 03:53:42;;;;;;;10.53;6.60;;;;;;;1.09;85.14;97387.94;5115683;28;20434;-36
2022/01/27 03:56:09;;;;;;;11.77;6.20;;;;;;;1.12;85.13;97378.00;5115635;28;20441;-35
2022/01/27 03:58:37;;;;;;;12.00;7.57;;;;;;;1.18;84.84;97371.28;5115634;28;20442;-35
2022/01/27 04:01:05;;;;;;;16.20;7.47;;;;;;;1.22;84.75;97381.25;5115498;28;20452;-35
2022/01/27 04:03:37;;;;;;;9.23;5.80;;;;;;;1.25;84.06;97395.81;5115825;28;20555;-34
2022/01/27 04:06:07;;;;;;;15.07;7.10;;;;;;;1.28;84.38;97386.84;5115488;28;20430;-35
2022/01/27 04:08:36;;;;;;;15.53;7.00;;;;;;;1.10;83.90;97368.66;5115438;28;20449;-35
2022/01/27 04:11:03;;;;;;;9.47;6.77;;;;;;;1.31;83.69;97387.34;5115668;28;20489;-36
2022/01/27 04:13:31;;;;;;;22.07;7.77;;;;;;;1.35;84.06;97382.56;5116137;28;20831;-35
2022/01/27 04:15:58;;;;;;;12.27;7.67;;;;;;;1.37;84.07;97391.06;5115217;28;20442;-35
2022/01/27 04:18:26;;;;;;;9.97;7.00;;;;;;;1.26;83.80;97367.84;5115450;28;20450;-35
2022/01/27 04:20:55;;;;;;;17.43;7.73;;;;;;;1.41;83.62;97390.59;5115487;28;20446;-35
2022/01/27 04:23:22;;;;;;;11.87;5.50;;;;;;;1.45;83.91;97388.47;5115096;28;20484;-36
2022/01/27 04:25:50;;;;;;;22.20;11.70;;;;;;;1.47;83.39;97381.28;5114973;28;20478;-38
2022/01/27 04:28:23;;;;;;;15.77;9.10;;;;;;;1.48;83.62;97382.88;5115044;28;20982;-35
2022/01/27 04:30:52;;;;;;;19.77;10.03;;;;;;;1.50;83.01;97385.34;5115360;28;20972;-37
2022/01/27 04:33:23;;;;;;;28.37;13.00;;;;;;;1.48;82.76;97382.88;5114917;28;20471;-35
2022/01/27 04:35:51;;;;;;;17.20;10.20;;;;;;;1.46;82.79;97390.09;5115765;28;20509;-35
2022/01/27 04:38:28;;;;;;;31.50;16.60;;;;;;;1.36;82.84;97369.34;5114905;28;20921;-35
2022/01/27 04:41:03;;;;;;;44.20;19.23;;;;;;;1.43;83.00;97380.78;5114862;28;20441;-34
2022/01/27 04:43:37;;;;;;;58.40;26.30;;;;;;;1.48;83.38;97382.88;5114980;28;20531;-35
2022/01/27 04:46:15;;;;;;;29.07;15.60;;;;;;;1.47;83.07;97386.50;5114766;28;20824;-36
2022/01/27 04:48:46;;;;;;;20.30;11.10;;;;;;;1.43;83.00;97386.00;5114367;28;20526;-35
2022/01/27 04:51:16;;;;;;;16.77;9.97;;;;;;;1.46;82.94;97382.25;5114961;28;20427;-35
2022/01/27 04:53:50;;;;;;;13.27;7.77;;;;;;;1.43;83.12;97387.81;5114902;28;20427;-34
2022/01/27 04:56:20;;;;;;;11.67;7.07;;;;;;;1.25;82.77;97368.81;5114576;28;20430;-36
2022/01/27 04:58:50;;;;;;;10.97;6.00;;;;;;;1.27;82.37;97364.25;5114471;28;20947;-35
2022/01/27 05:01:23;;;;;;;12.40;6.40;;;;;;;1.40;82.88;97386.34;5114577;28;20541;-35
2022/01/27 05:03:56;;;;;;;19.87;9.97;;;;;;;1.41;82.69;97387.16;5114636;28;20473;-35
2022/01/27 05:06:23;;;;;;;22.57;11.20;;;;;;;1.40;83.19;97396.00;5113580;28;20426;-35
2022/01/27 05:08:51;;;;;;;28.40;14.20;;;;;;;1.42;83.05;97396.66;5114223;28;20937;-35
2022/01/27 05:11:24;;;;;;;16.97;10.50;;;;;;;1.39;83.00;97383.88;5114564;28;20508;-34
2022/01/27 05:13:55;;;;;;;12.27;10.97;;;;;;;1.43;82.37;97385.19;5114501;28;20438;-35
2022/01/27 05:16:22;;;;;;;20.17;14.20;;;;;;;1.41;82.38;97402.84;5114223;28;20442;-35
2022/01/27 05:18:49;;;;;;;21.40;12.10;;;;;;;1.42;82.56;97399.28;5114421;28;20464;-35
2022/01/27 05:21:17;;;;;;;38.67;16.37;;;;;;;1.43;82.81;97400.91;5114359;28;20472;-35
2022/01/27 05:23:44;;;;;;;40.43;20.13;;;;;;;1.46;83.02;97411.03;5114378;28;20508;-35
2022/01/27 05:26:18;;;;;;;27.87;13.60;;;;;;;1.47;82.85;97407.44;5114590;28;20812;-34
2022/01/27 05:28:45;;;;;;;16.20;9.43;;;;;;;1.53;82.50;97419.88;5112521;28;20482;-36
2022/01/27 05:31:12;;;;;;;20.47;9.83;;;;;;;1.54;82.45;97418.88;5112441;28;20438;-35
2022/01/27 05:33:39;;;;;;;13.63;7.80;;;;;;;1.54;82.44;97418.06;5113988;28;20781;-37
2022/01/27 05:36:07;;;;;;;16.40;8.60;;;;;;;1.56;82.21;97426.56;5114197;28;20449;-34
2022/01/27 05:38:35;;;;;;;15.70;8.37;;;;;;;1.56;82.53;97423.97;5114151;28;20450;-35
2022/01/27 05:41:03;;;;;;;137.70;56.20;;;;;;;1.46;82.61;97408.41;5114003;28;20536;-34
2022/01/27 05:43:32;;;;;;;922.90;444.13;;;;;;;1.52;82.19;97426.06;5113538;28;20996;-35
2022/01/27 05:45:59;;;;;;;148.40;69.57;;;;;;;1.45;81.96;97430.34;5113782;28;20445;-35
2022/01/27 05:48:26;;;;;;;69.27;38.37;;;;;;;1.41;82.50;97427.22;5113637;28;21063;-35
2022/01/27 05:50:54;;;;;;;400.63;169.10;;;;;;;1.41;82.58;97439.50;5114049;28;20433;-34
2022/01/27 05:53:21;;;;;;;304.03;138.83;;;;;;;1.42;82.05;97434.09;5113664;28;20483;-34
2022/01/27 05:55:48;;;;;;;82.30;40.37;;;;;;;1.44;82.41;97449.63;5113630;28;20446;-37
2022/01/27 05:58:16;;;;;;;153.53;90.37;;;;;;;1.45;82.44;97440.00;5113672;28;20442;-35
2022/01/27 06:00:44;;;;;;;43.53;28.23;;;;;;;1.45;82.12;97435.56;5113612;28;20918;-35
2022/01/27 06:03:12;;;;;;;15.80;9.87;;;;;;;1.35;81.83;97446.19;5113479;28;20448;-36
2022/01/27 06:05:39;;;;;;;10.10;7.40;;;;;;;1.32;81.78;97450.94;5113669;28;20438;-37
2022/01/27 06:08:06;;;;;;;42.37;22.37;;;;;;;1.30;82.05;97442.44;5113779;28;20449;-37
2022/01/27 06:10:34;;;;;;;178.37;83.27;;;;;;;1.34;82.65;97448.97;5113957;28;20448;-35
2022/01/27 06:13:01;;;;;;;40.60;23.07;;;;;;;1.35;82.84;97445.38;5117648;28;20445;-36
2022/01/27 06:15:28;;;;;;;52.10;29.70;;;;;;;1.40;82.62;97453.56;5117481;28;20438;-37
2022/01/27 06:17:58;;;;;;;51.63;32.77;;;;;;;1.35;81.44;97459.25;5117868;28;20446;-36
2022/01/27 06:20:28;;;;;;;33.60;21.93;;;;;;;1.34;82.11;97460.25;5117744;28;20450;-36
2022/01/27 06:22:57;;;;;;;38.03;21.00;;;;;;;1.22;82.00;97445.84;5117732;28;20474;-35
2022/01/27 06:25:25;;;;;;;29.20;24.90;;;;;;;1.35;82.25;97466.31;5118472;28;20485;-35
2022/01/27 06:27:53;;;;;;;18.20;15.63;;;;;;;1.36;82.75;97467.94;5117457;28;20473;-36
2022/01/27 06:30:21;;;;;;;28.97;20.60;;;;;;;1.41;82.96;97470.88;5117274;28;20445;-36
2022/01/27 06:32:48;;;;;;;47.03;25.77;;;;;;;1.42;82.98;97472.53;5117242;28;20438;-35
2022/01/27 06:35:17;;;;;;;21.87;13.77;;;;;;;1.45;83.43;97472.22;5117536;28;20450;-35
2022/01/27 06:37:45;;;;;;;53.77;37.20;;;;;;;1.45;83.59;97474.81;5117159;28;20453;-35
2022/01/27 06:40:14;;;;;;;49.03;28.43;;;;;;;1.50;83.67;97477.75;5117478;28;20446;-35
2022/01/27 06:42:41;;;;;;;46.57;24.50;;;;;;;1.51;83.78;97484.66;5117356;28;20445;-35
2022/01/27 06:45:10;;;;;;;55.50;34.47;;;;;;;1.53;83.50;97469.59;5116608;28;20512;-34
2022/01/27 06:47:37;;;;;;;39.37;21.93;;;;;;;1.40;83.27;97464.84;5116832;28;20441;-37
2022/01/27 06:50:05;;;;;;;133.03;73.87;;;;;;;1.42;83.58;97467.31;5116823;28;20497;-36
2022/01/27 06:52:34;;;;;;;69.60;40.23;;;;;;;1.31;83.67;97451.91;5116912;28;20450;-35
2022/01/27 06:55:03;;;;;;;30.30;22.20;;;;;;;1.37;83.90;97464.34;5116593;28;20444;-36
2022/01/27 06:57:31;;;;;;;23.90;13.70;;;;;;;1.40;84.16;97464.03;5117112;28;20507;-34
2022/01/27 06:59:58;;;;;;;30.20;18.27;;;;;;;1.36;84.39;97455.69;5117058;28;20442;-37
2022/01/27 07:02:25;;;;;;;16.50;11.10;;;;;;;1.36;84.25;97460.91;5116726;28;20458;-35
2022/01/27 07:04:52;;;;;;;30.57;16.63;;;;;;;1.37;84.21;97461.72;5116515;28;20572;-36
2022/01/27 07:07:20;;;;;;;27.03;16.97;;;;;;;1.34;84.26;97459.44;5116600;28;20446;-35
2022/01/27 07:09:48;;;;;;;25.00;17.50;;;;;;;1.33;84.28;97453.38;5116862;28;20442;-34
2022/01/27 07:12:15;;;;;;;27.47;13.93;;;;;;;1.29;84.40;97459.09;5116850;28;20460;-35
2022/01/27 07:14:43;;;;;;;21.23;11.80;;;;;;;1.20;84.33;97453.03;5116440;28;20442;-35
2022/01/27 07:17:12;;;;;;;18.67;12.23;;;;;;;1.34;84.27;97464.69;5116311;28;20453;-36
2022/01/27 07:19:39;;;;;;;28.77;16.10;;;;;;;1.35;84.47;97474.97;5116664;28;20477;-34
2022/01/27 07:22:07;;;;;;;31.97;16.23;;;;;;;1.27;84.76;97463.66;5115392;28;20447;-34
2022/01/27 07:24:34;;;;;;;19.97;12.63;;;;;;;1.33;84.91;97484.75;5115945;28;20481;-35
2022/01/27 07:27:03;;;;;;;30.70;15.47;;;;;;;1.46;84.45;97478.25;5116526;28;20449;-34
2022/01/27 07:29:30;;;;;;;19.80;13.60;;;;;;;1.44;84.40;97475.78;5116154;28;20438;-34
2022/01/27 07:31:58;;;;;;;49.93;27.50;;;;;;;1.51;83.92;97471.56;5116061;28;20941;-34
2022/01/27 07:34:25;;;;;;;13.03;8.33;;;;;;;1.49;83.50;97462.25;5115979;28;20529;-38
2022/01/27 07:36:56;;;;;;;27.73;14.67;;;;;;;1.50;84.27;97469.91;5116033;28;20470;-36
2022/01/27 07:39:23;;;;;;;21.00;13.00;;;;;;;1.52;83.84;97482.84;5112919;28;20439;-37
2022/01/27 07:41:51;;;;;;;40.73;23.93;;;;;;;1.51;83.84;97462.91;5094939;28;20485;-36
2022/01/27 07:44:19;;;;;;;16.07;11.40;;;;;;;1.50;84.47;97469.91;5106162;28;20544;-35
2022/01/27 07:46:46;;;;;;;24.80;13.97;;;;;;;1.48;83.58;97465.81;5094668;28;20849;-37
2022/01/27 07:49:14;;;;;;;48.40;20.00;;;;;;;1.45;84.14;97458.31;5094734;28;20471;-37
2022/01/27 07:51:41;;;;;;;23.20;12.93;;;;;;;1.45;83.83;97474.81;5094857;28;20445;-35
2022/01/27 07:54:08;;;;;;;26.03;14.37;;;;;;;1.47;84.42;97467.63;5095282;28;20844;-36
2022/01/27 07:56:35;;;;;;;18.50;10.23;;;;;;;1.49;83.97;97468.28;5095189;28;20443;-35
2022/01/27 07:59:02;;;;;;;29.23;12.43;;;;;;;1.52;83.97;97470.56;5094965;28;20927;-38
2022/01/27 08:01:31;;;;;;;25.33;14.50;;;;;;;1.53;84.00;97466.97;5094400;28;20922;-34
2022/01/27 08:03:58;;;;;;;46.50;29.83;;;;;;;1.57;83.77;97477.94;5095971;28;20895;-35
2022/01/27 08:06:25;;;;;;;36.07;22.57;;;;;;;1.56;83.69;97469.25;5095347;28;20447;-37
2022/01/27 08:08:53;;;;;;;57.20;30.63;;;;;;;1.60;83.61;97465.34;5095260;28;21054;-35
2022/01/27 08:11:20;;;;;;;23.17;14.13;;;;;;;1.68;82.66;97466.31;5095230;28;20439;-36
2022/01/27 08:13:47;;;;;;;20.90;16.43;;;;;;;1.69;82.59;97474.00;5094886;28;20538;-35
2022/01/27 08:16:14;;;;;;;44.20;22.27;;;;;;;1.77;82.63;97475.84;5097564;28;20466;-36
2022/01/27 08:18:43;;;;;;;25.43;15.53;;;;;;;1.84;82.21;97482.84;5094855;28;20445;-34
2022/01/27 08:21:10;;;;;;;41.83;20.57;;;;;;;1.91;81.79;97484.81;5095016;28;20918;-35
2022/01/27 08:23:40;;;;;;;41.03;20.13;;;;;;;1.97;81.71;97482.34;5094723;28;20454;-35
2022/01/27 08:26:11;;;;;;;21.27;12.13;;;;;;;2.09;80.99;97484.63;5094180;28;20482;-37
2022/01/27 08:28:45;;;;;;;33.37;17.67;;;;;;;2.15;80.53;97478.72;5094547;28;20431;-34
2022/01/27 08:31:14;;;;;;;50.67;22.73;;;;;;;2.24;80.25;97496.09;5094914;28;20846;-36
2022/01/27 08:33:41;;;;;;;35.40;18.20;;;;;;;2.30;79.97;97477.06;5094141;28;20457;-35
2022/01/27 08:36:11;;;;;;;24.33;15.17;;;;;;;2.44;79.35;97489.50;5094436;28;20446;-35
2022/01/27 08:38:43;;;;;;;22.97;14.93;;;;;;;2.51;78.68;97486.19;5094684;28;20431;-36
2022/01/27 08:41:11;;;;;;;17.37;8.77;;;;;;;2.60;78.01;97482.56;5094390;28;20435;-38
2022/01/27 08:43:38;;;;;;;19.90;14.00;;;;;;;2.73;77.73;97482.88;5102155;28;20514;-35
2022/01/27 08:46:05;;;;;;;15.40;10.03;;;;;;;2.76;76.85;97472.03;5094216;28;20977;-35
2022/01/27 08:48:35;;;;;;;26.10;12.37;;;;;;;2.93;76.12;97477.22;5093979;28;20965;-34
2022/01/27 08:51:09;;;;;;;378.13;156.93;;;;;;;3.02;75.55;97477.00;5094187;28;20427;-33
2022/01/27 08:53:38;;;;;;;244.80;114.13;;;;;;;3.10;75.31;97484.00;5094491;28;20462;-35
2022/01/27 08:56:06;;;;;;;71.70;36.07;;;;;;;3.22;74.69;97487.88;5094098;28;20919;-34
2022/01/27 08:58:34;;;;;;;48.33;27.90;;;;;;;3.30;74.33;97488.81;5093967;28;20530;-36
2022/01/27 09:01:03;;;;;;;39.40;24.27;;;;;;;3.36;74.68;97483.69;5093896;28;20945;-35
2022/01/27 09:03:30;;;;;;;29.83;21.00;;;;;;;3.41;73.47;97491.06;5094274;28;20447;-35
2022/01/27 09:05:57;;;;;;;28.20;20.93;;;;;;;3.44;72.94;97501.19;5093709;28;20526;-35
2022/01/27 09:08:25;;;;;;;44.37;28.97;;;;;;;3.48;72.79;97487.56;5093876;28;20965;-35
2022/01/27 09:10:54;;;;;;;29.03;17.23;;;;;;;3.55;73.06;97492.94;5093806;28;20446;-35
2022/01/27 09:13:21;;;;;;;31.70;21.43;;;;;;;3.73;72.63;97489.19;5093671;28;20440;-38
2022/01/27 09:15:50;;;;;;;18.10;13.37;;;;;;;3.88;72.22;97495.31;5094912;28;20451;-35
2022/01/27 09:18:18;;;;;;;25.50;16.67;;;;;;;4.14;72.24;97491.50;5097238;28;20800;-33
2022/01/27 09:20:46;;;;;;;34.53;22.63;;;;;;;4.60;71.03;97488.72;5093540;28;20508;-35
2022/01/27 09:23:14;;;;;;;31.03;17.57;;;;;;;4.99;70.32;97490.22;5104941;28;20924;-36
2022/01/27 09:25:44;;;;;;;61.50;29.07;;;;;;;5.28;68.52;97484.91;5113204;28;20486;-34
2022/01/27 09:28:14;;;;;;;34.23;23.03;;;;;;;5.57;66.18;97487.66;5113587;28;20503;-36
2022/01/27 09:30:43;;;;;;;35.23;20.47;;;;;;;5.57;64.58;97462.16;5112638;28;20440;-37
2022/01/27 09:33:11;;;;;;;41.50;25.70;;;;;;;5.74;64.60;97481.97;5113111;28;20445;-35
2022/01/27 09:35:38;;;;;;;30.87;19.33;;;;;;;5.72;64.04;97481.34;5113193;28;20522;-35
2022/01/27 09:38:05;;;;;;;27.53;17.90;;;;;;;5.91;63.56;97486.94;5112489;28;20450;-34
2022/01/27 09:40:34;;;;;;;37.03;21.90;;;;;;;6.00;62.29;97483.22;5110941;28;20446;-36
2022/01/27 09:43:03;;;;;;;66.80;38.20;;;;;;;6.04;61.64;97483.66;5112982;28;20478;-35
2022/01/27 09:45:38;;;;;;;40.27;21.93;;;;;;;6.10;61.49;97480.25;5112373;28;20490;-35
2022/01/27 09:48:13;;;;;;;44.03;23.50;;;;;;;6.19;61.74;97473.00;5112780;28;20426;-33
2022/01/27 09:51:00;;;;;;;67.83;33.97;;;;;;;6.34;61.19;97471.09;5104952;28;20450;-35
2022/01/27 09:53:30;;;;;;;100.90;44.57;;;;;;;6.30;61.87;97472.47;5105736;28;20465;-36
2022/01/27 09:55:59;;;;;;;58.30;27.07;;;;;;;6.32;60.51;97465.19;5092413;28;20492;-34
2022/01/27 09:58:27;;;;;;;43.67;26.03;;;;;;;6.17;60.62;97461.84;5093489;28;20443;-34
2022/01/27 10:00:56;;;;;;;51.73;26.60;;;;;;;6.22;61.48;97460.28;5098882;28;20449;-35
2022/01/27 10:03:26;;;;;;;31.80;14.70;;;;;;;6.09;60.11;97454.91;5113221;28;20438;-35
2022/01/27 10:06:11;;;;;;;29.03;16.87;;;;;;;6.35;61.00;97443.72;5113116;28;20485;-36
2022/01/27 10:08:42;;;;;;;69.37;37.83;;;;;;;6.51;59.56;97451.31;5112953;28;20600;-36
2022/01/27 10:11:15;;;;;;;90.00;35.27;;;;;;;6.63;59.65;97454.25;5108600;28;20525;-36
2022/01/27 10:13:45;;;;;;;70.67;36.10;;;;;;;6.72;59.11;97449.63;5095497;28;20438;-36
2022/01/27 10:16:35;;;;;;;184.90;87.23;;;;;;;6.73;59.68;97448.59;5113590;28;20442;-35
2022/01/27 10:19:06;;;;;;;86.33;43.10;;;;;;;6.75;58.81;97428.09;5113473;28;20934;-35
2022/01/27 10:21:35;;;;;;;45.00;24.10;;;;;;;6.95;59.32;97444.84;5113705;28;20446;-35
2022/01/27 10:24:16;;;;;;;86.13;50.60;;;;;;;7.05;58.49;97433.91;5113105;28;20940;-33
2022/01/27 10:26:46;;;;;;;46.70;27.83;;;;;;;7.09;57.96;97434.31;5106776;28;20477;-35
2022/01/27 10:29:17;;;;;;;38.73;20.57;;;;;;;7.08;57.25;97448.56;5113549;28;20446;-37
2022/01/27 10:31:46;;;;;;;21.67;14.87;;;;;;;7.21;58.02;97438.03;5113727;28;20445;-35
2022/01/27 10:34:15;;;;;;;17.13;11.27;;;;;;;7.33;56.49;97436.41;5112595;28;20450;-35
2022/01/27 10:36:44;;;;;;;47.87;23.70;;;;;;;7.01;56.75;97405.44;5111290;28;20450;-35
2022/01/27 10:39:13;;;;;;;28.30;16.70;;;;;;;7.27;57.37;97418.75;5113116;28;20503;-35
2022/01/27 10:41:55;;;;;;;18.20;10.73;;;;;;;7.32;56.51;97418.94;5113140;28;20450;-35
2022/01/27 10:44:23;;;;;;;61.33;40.07;;;;;;;7.24;56.29;97416.50;5113034;28;20828;-35
2022/01/27 10:47:07;;;;;;;52.93;27.43;;;;;;;7.17;56.70;97410.38;5111909;28;20941;-34
2022/01/27 10:49:41;;;;;;;65.97;34.53;;;;;;;7.06;57.05;97408.34;5112963;28;20485;-35
2022/01/27 10:52:12;;;;;;;122.70;65.67;;;;;;;7.01;57.08;97402.81;5113332;28;20442;-34
2022/01/27 10:54:41;;;;;;;30.03;21.23;;;;;;;7.01;57.35;97405.44;5113441;28;20434;-34
2022/01/27 10:57:11;;;;;;;35.73;19.60;;;;;;;7.02;56.82;97401.81;5114246;28;20544;-33
2022/01/27 10:59:39;;;;;;;27.60;16.10;;;;;;;6.83;56.39;97377.78;5115601;28;20521;-34
2022/01/27 11:02:10;;;;;;;26.10;16.20;;;;;;;6.92;56.04;97408.25;5113911;28;20434;-38
2022/01/27 11:04:38;;;;;;;36.23;19.87;;;;;;;7.02;56.37;97381.50;5115285;28;20931;-35
2022/01/27 11:07:09;;;;;;;61.40;31.43;;;;;;;7.10;57.10;97389.25;5115852;28;20466;-36
2022/01/27 11:09:38;;;;;;;51.40;25.10;;;;;;;7.17;56.69;97378.69;5095626;28;20442;-35
2022/01/27 11:12:12;;;;;;;85.93;42.50;;;;;;;7.20;56.80;97383.56;5097883;28;20450;-36
2022/01/27 11:14:40;;;;;;;101.63;48.00;;;;;;;6.88;55.39;97385.09;5094847;28;20531;-35
2022/01/27 11:17:20;;;;;;;21.43;13.00;;;;;;;6.96;56.56;97388.38;5095150;28;20439;-36
2022/01/27 11:22:47;;;;;;;25.53;17.80;;;;;;;7.09;56.98;97370.97;5090127;28;20431;-37
2022/01/27 11:28:02;;;;;;;11.20;8.90;;;;;;;7.05;56.23;97364.44;5095406;28;20508;-35
2022/01/27 11:30:38;;;;;;;16.20;11.23;;;;;;;7.17;56.10;97363.66;5101077;28;20449;-36
2022/01/27 11:33:10;;;;;;;12.43;5.47;;;;;;;7.26;55.99;97356.34;5114579;28;20434;-35
2022/01/27 11:35:39;;;;;;;26.83;11.83;;;;;;;7.28;54.07;97349.03;5116008;28;20497;-36
2022/01/27 11:38:08;;;;;;;16.83;9.60;;;;;;;7.11;54.62;97358.38;5116163;28;20547;-35
2022/01/27 11:40:37;;;;;;;12.73;5.90;;;;;;;7.10;56.56;97351.47;5115563;28;20442;-35
2022/01/27 11:43:08;;;;;;;19.13;7.87;;;;;;;7.12;55.72;97349.41;5113859;28;20445;-35
2022/01/27 11:45:38;;;;;;;7.70;5.47;;;;;;;6.95;54.46;97344.53;5115771;28;20472;-36
2022/01/27 11:48:10;;;;;;;12.67;8.30;;;;;;;7.00;56.13;97351.03;5115447;28;20833;-35
2022/01/27 11:50:52;;;;;;;6.37;5.33;;;;;;;6.93;55.35;97343.91;5115355;28;20430;-35
2022/01/27 11:53:32;;;;;;;12.27;7.53;;;;;;;6.89;55.95;97345.31;5113005;28;20464;-36
2022/01/27 11:56:01;;;;;;;22.93;12.70;;;;;;;6.94;55.65;97345.53;5115549;28;20461;-36
2022/01/27 11:58:29;;;;;;;42.47;18.93;;;;;;;6.87;56.04;97315.66;5110040;28;20442;-35
2022/01/27 12:01:14;;;;;;;38.83;16.83;;;;;;;7.05;55.25;97338.84;5113640;28;20445;-36
2022/01/27 12:04:15;;;;;;;55.57;24.20;;;;;;;7.13;54.41;97335.22;5094172;28;20514;-36
2022/01/27 12:07:03;;;;;;;14.63;8.80;;;;;;;6.97;55.14;97305.53;5094862;28;21007;-33
2022/01/27 12:09:31;;;;;;;9.00;6.27;;;;;;;6.98;53.50;97315.06;5098302;28;20456;-35